Airfield :
LOGIN :

Register | Disclaimer

   EN    FR    IT 

 










Legend :    VFR   Marginal VFR   IFR   Intensive IFR   Very Intensive IFR
Visi :
Ceiling :
>= 8 km
>= 3000ft
5 to 8 km
1000 to 3000 ft
1500m to 5 km
500 to 1000 ft
800 to 1500m
200 to 500 ft
< 800m
< 200 ft
Symbols :   Thunderstorms  Fog  Heavy snow  Heavy precipitations  Wind > 20 kt
SIGMETs :     Misc.  Thunderstorms  Icing  Turbulence  Mountain Waves  Volcanic Ashes






- Airport Elevation : 598 ft
- IATA code : BQH


EGKB - Biggin Hill

CURRENT METAR :
  • 041050Z 25007KT 210V310 9999 FEW040 19/08 Q1022

EXPIRED METARs :
  • 041020Z 26009KT 210V300 9999 FEW040 19/08 Q1022
  • 040950Z 25007KT 190V340 CAVOK 17/07 Q1022
  • 040920Z 25009KT 230V300 CAVOK 18/06 Q1022
  • 040850Z 25006KT 210V330 CAVOK 17/07 Q1022
  • 040820Z 28007KT 230V330 CAVOK 16/06 Q1022

TAF TAF EGKB
Valid from the 04 at 09:00 until the 04 at 18:00 UTC


040751Z 0409/0418 25007KT 9999 SCT045



MET'MAP, your aeronautical weather chart ! - Copyright ORBIFLY December 2007 - Disclaimer

ORBIFLY MET'MAP TEAM :

Programming & Development : Alexandra Zaïnal
Original concept : Baudouin d'Aumeries
Technical & hardware support : Manuel Goepfert
Assistance : Marc-Olivier Méhu




SOURCES & CREDITS :

   NOAA